createdAt,value
2018-10-02T00:01:19.511Z,7.10
2018-10-02T00:03:47.788Z,7.10
2018-10-02T00:06:16.611Z,7.10
2018-10-02T00:08:44.878Z,7.00
2018-10-02T00:11:18.723Z,7.00
2018-10-02T00:13:52.539Z,7.00
2018-10-02T00:16:20.798Z,7.00
2018-10-02T00:18:49.066Z,7.00
2018-10-02T00:21:17.327Z,7.00
2018-10-02T00:23:45.605Z,7.00
2018-10-02T00:26:13.882Z,7.00
2018-10-02T00:28:42.194Z,6.90
2018-10-02T00:31:11.081Z,6.90
2018-10-02T00:33:39.339Z,6.90
2018-10-02T00:36:07.615Z,6.80
2018-10-02T00:38:35.887Z,6.80
2018-10-02T00:41:04.163Z,6.80
2018-10-02T00:43:32.431Z,6.80
2018-10-02T00:46:00.707Z,6.80
2018-10-02T00:48:29.016Z,6.80
2018-10-02T00:50:57.292Z,6.80
2018-10-02T00:53:25.562Z,6.70
2018-10-02T00:55:53.855Z,6.70
2018-10-02T00:58:22.118Z,6.60
2018-10-02T01:00:50.390Z,6.70
2018-10-02T01:03:18.668Z,6.70
2018-10-02T01:05:46.947Z,6.60
2018-10-02T01:08:15.252Z,6.70
2018-10-02T01:10:43.507Z,6.60
2018-10-02T01:13:11.762Z,6.70
2018-10-02T01:15:40.039Z,6.60
2018-10-02T01:18:08.322Z,6.60
2018-10-02T01:20:36.599Z,6.70
2018-10-02T01:23:04.858Z,6.70
2018-10-02T01:25:33.118Z,6.70
2018-10-02T01:28:01.377Z,6.70
2018-10-02T01:30:29.670Z,6.70
2018-10-02T01:32:57.955Z,6.80
2018-10-02T01:35:26.280Z,6.80
2018-10-02T01:37:54.551Z,6.80
2018-10-02T01:40:22.814Z,6.80
2018-10-02T01:42:51.075Z,6.80
2018-10-02T01:45:19.355Z,6.80
2018-10-02T01:47:47.623Z,6.80
2018-10-02T01:50:15.866Z,6.80
2018-10-02T01:52:44.945Z,6.80
2018-10-02T01:55:13.191Z,6.70
2018-10-02T01:57:41.710Z,6.70
2018-10-02T02:00:09.973Z,6.80
2018-10-02T02:02:38.247Z,6.80
2018-10-02T02:05:06.839Z,6.80
2018-10-02T02:07:35.268Z,6.80
2018-10-02T02:10:03.831Z,6.80
2018-10-02T02:12:32.431Z,6.80
2018-10-02T02:15:00.709Z,6.90
2018-10-02T02:17:29.015Z,6.90
2018-10-02T02:19:57.292Z,6.90
2018-10-02T02:22:25.851Z,6.90
2018-10-02T02:24:54.148Z,7.00
2018-10-02T02:27:22.411Z,7.00
2018-10-02T02:29:51.030Z,7.00
2018-10-02T02:32:19.611Z,7.00
2018-10-02T02:34:47.865Z,7.00
2018-10-02T02:37:16.151Z,7.00
2018-10-02T02:39:44.431Z,7.00
2018-10-02T02:42:12.836Z,7.10
2018-10-02T02:44:41.172Z,7.00
2018-10-02T02:47:14.871Z,7.00
2018-10-02T02:49:48.471Z,7.00
2018-10-02T02:52:18.846Z,7.00
2018-10-02T02:54:47.088Z,7.00
2018-10-02T02:57:15.387Z,7.00
2018-10-02T02:59:43.672Z,7.10
2018-10-02T03:02:11.955Z,7.10
2018-10-02T03:04:40.243Z,7.10
2018-10-02T03:07:08.535Z,7.10
2018-10-02T03:09:36.807Z,7.20
2018-10-02T03:12:05.084Z,7.20
2018-10-02T03:14:33.339Z,7.20
2018-10-02T03:17:01.607Z,7.20
2018-10-02T03:19:29.891Z,7.20
2018-10-02T03:21:58.207Z,7.20
2018-10-02T03:24:26.431Z,7.20
2018-10-02T03:26:54.712Z,7.30
2018-10-02T03:29:22.974Z,7.30
2018-10-02T03:31:51.243Z,7.20
2018-10-02T03:34:19.511Z,7.20
2018-10-02T03:36:47.786Z,7.20
2018-10-02T03:39:16.062Z,7.20
2018-10-02T03:41:44.315Z,7.20
2018-10-02T03:44:12.600Z,7.20
2018-10-02T03:46:40.884Z,7.20
2018-10-02T03:49:09.154Z,7.20
2018-10-02T03:51:37.430Z,7.20
2018-10-02T03:54:05.851Z,7.20
2018-10-02T03:56:34.403Z,7.20
2018-10-02T03:59:02.823Z,7.20
2018-10-02T04:01:31.106Z,7.20
2018-10-02T04:03:59.360Z,7.20
2018-10-02T04:06:27.692Z,7.20
2018-10-02T04:08:55.976Z,7.20
2018-10-02T04:11:24.251Z,7.20
2018-10-02T04:13:52.507Z,7.30
2018-10-02T04:16:20.783Z,7.30
2018-10-02T04:18:49.011Z,7.30
2018-10-02T04:21:21.699Z,7.40
2018-10-02T04:23:49.956Z,7.40
2018-10-02T04:26:18.210Z,7.40
2018-10-02T04:28:46.463Z,7.40
2018-10-02T04:31:14.734Z,7.40
2018-10-02T04:33:43.012Z,7.30
2018-10-02T04:36:11.283Z,7.30
2018-10-02T04:38:39.543Z,7.30
2018-10-02T04:41:07.831Z,7.40
2018-10-02T04:43:36.096Z,7.40
2018-10-02T04:46:04.378Z,7.40
2018-10-02T04:48:32.631Z,7.40
2018-10-02T04:51:00.895Z,7.40
2018-10-02T04:53:29.224Z,7.40
2018-10-02T04:55:57.655Z,7.50
2018-10-02T04:58:25.831Z,7.50
2018-10-02T05:00:54.095Z,7.50
2018-10-02T05:03:22.548Z,7.50
2018-10-02T05:05:50.843Z,7.60
2018-10-02T05:08:19.180Z,7.60
2018-10-02T05:10:47.394Z,7.60
2018-10-02T05:13:15.811Z,7.60
2018-10-02T05:15:44.350Z,7.60
2018-10-02T05:18:12.601Z,7.60
2018-10-02T05:20:40.859Z,7.50
2018-10-02T05:23:09.193Z,7.50
2018-10-02T05:25:37.554Z,7.60
2018-10-02T05:28:05.852Z,7.60
2018-10-02T05:30:34.115Z,7.50
2018-10-02T05:33:02.375Z,7.50
2018-10-02T05:35:30.690Z,7.50
2018-10-02T05:37:58.985Z,7.50
2018-10-02T05:43:02.079Z,7.40
2018-10-02T05:45:30.483Z,7.40
2018-10-02T05:47:58.819Z,7.40
2018-10-02T05:50:27.138Z,7.40
2018-10-02T05:52:55.356Z,7.40
2018-10-02T05:55:23.657Z,7.40
2018-10-02T05:57:51.936Z,7.40
2018-10-02T06:00:20.220Z,7.40
2018-10-02T06:02:48.485Z,7.40
2018-10-02T06:05:16.768Z,7.40
2018-10-02T06:07:45.026Z,7.40
2018-10-02T06:10:13.298Z,7.40
2018-10-02T06:12:41.581Z,7.30
2018-10-02T06:15:09.893Z,7.30
2018-10-02T06:17:38.173Z,7.30
2018-10-02T06:20:06.599Z,7.30
2018-10-02T06:22:34.895Z,7.30
2018-10-02T06:25:03.205Z,7.30
2018-10-02T06:27:31.524Z,7.30
2018-10-02T06:29:59.845Z,7.30
2018-10-02T06:32:28.158Z,7.30
2018-10-02T06:34:56.424Z,7.30
2018-10-02T06:37:24.695Z,7.30
2018-10-02T06:39:52.947Z,7.30
2018-10-02T06:42:21.301Z,7.30
2018-10-02T06:44:49.604Z,7.30
2018-10-02T06:47:17.863Z,7.40
2018-10-02T06:49:46.159Z,7.40
2018-10-02T06:52:14.590Z,7.40
2018-10-02T06:54:42.726Z,7.40
2018-10-02T06:57:10.984Z,7.40
2018-10-02T06:59:39.266Z,7.40
2018-10-02T07:02:07.562Z,7.50
2018-10-02T07:04:35.883Z,7.50
2018-10-02T07:07:04.228Z,7.50
2018-10-02T07:09:32.499Z,7.50
2018-10-02T07:12:00.756Z,7.50
2018-10-02T07:14:29.112Z,7.50
2018-10-02T07:16:57.378Z,7.50
2018-10-02T07:19:26.104Z,7.60
2018-10-02T07:21:54.367Z,7.60
2018-10-02T07:24:22.656Z,7.50
2018-10-02T07:26:51.089Z,7.60
2018-10-02T07:29:19.279Z,7.60
2018-10-02T07:31:47.565Z,7.60
2018-10-02T07:34:15.868Z,7.60
2018-10-02T07:36:44.185Z,7.70
2018-10-02T07:39:12.471Z,7.70
2018-10-02T07:41:40.802Z,7.70
2018-10-02T07:44:09.043Z,7.70
2018-10-02T07:46:37.364Z,7.70
2018-10-02T07:49:05.643Z,7.70
2018-10-02T07:51:33.921Z,7.70
2018-10-02T07:54:02.232Z,7.70
2018-10-02T07:56:30.502Z,7.70
2018-10-02T07:58:58.756Z,7.70
2018-10-02T08:01:27.006Z,7.70
2018-10-02T08:03:55.291Z,7.70
2018-10-02T08:06:23.574Z,7.80
2018-10-02T08:08:51.971Z,7.80
2018-10-02T08:11:20.248Z,7.80
2018-10-02T08:13:48.527Z,7.80
2018-10-02T08:16:16.854Z,7.80
2018-10-02T08:18:45.125Z,7.80
2018-10-02T08:21:13.408Z,7.80
2018-10-02T08:23:41.800Z,7.90
2018-10-02T08:26:10.244Z,7.80
2018-10-02T08:28:38.579Z,7.80
2018-10-02T08:31:07.199Z,7.80
2018-10-02T08:33:35.475Z,7.90
2018-10-02T08:36:03.943Z,7.90
2018-10-02T08:38:32.133Z,7.90
2018-10-02T08:41:00.400Z,7.90
2018-10-02T08:43:28.729Z,7.90
2018-10-02T08:45:56.972Z,8.00
2018-10-02T08:48:25.235Z,8.00
2018-10-02T08:50:53.523Z,8.00
2018-10-02T08:53:21.825Z,8.10
2018-10-02T08:55:50.127Z,8.10
2018-10-02T08:58:18.420Z,8.10
2018-10-02T09:00:46.850Z,8.10
2018-10-02T09:03:15.246Z,8.10
2018-10-02T09:05:43.512Z,8.20
2018-10-02T09:08:11.787Z,8.10
2018-10-02T09:10:40.116Z,8.20
2018-10-02T09:13:08.445Z,8.20
2018-10-02T09:15:36.802Z,8.20
2018-10-02T09:18:05.169Z,8.20
2018-10-02T09:20:33.473Z,8.20
2018-10-02T09:23:01.800Z,8.20
2018-10-02T09:25:30.151Z,8.30
2018-10-02T09:27:58.605Z,8.30
2018-10-02T09:30:32.243Z,8.30
2018-10-02T09:33:05.941Z,8.30
2018-10-02T09:35:39.575Z,8.30
2018-10-02T09:38:13.252Z,8.30
2018-10-02T09:40:47.001Z,8.40
2018-10-02T09:43:25.601Z,8.40
2018-10-02T09:45:55.470Z,8.40
2018-10-02T09:48:23.772Z,8.40
2018-10-02T09:50:52.067Z,8.40
2018-10-02T09:53:20.315Z,8.40
2018-10-02T09:55:48.587Z,8.50
2018-10-02T09:58:16.872Z,8.50
2018-10-02T10:00:50.567Z,8.60
2018-10-02T10:03:18.808Z,8.60
2018-10-02T10:05:47.088Z,8.60
2018-10-02T10:08:15.396Z,8.60
2018-10-02T10:10:43.731Z,8.60
2018-10-02T10:13:12.042Z,8.60
2018-10-02T10:15:40.324Z,8.70
2018-10-02T10:18:08.609Z,8.70
2018-10-02T10:20:36.900Z,8.80
2018-10-02T10:23:05.281Z,8.80
2018-10-02T10:25:33.513Z,8.80
2018-10-02T10:28:01.809Z,8.80
2018-10-02T10:30:30.135Z,8.90
2018-10-02T10:32:58.419Z,8.90
2018-10-02T10:35:26.698Z,8.90
2018-10-02T10:37:55.059Z,9.00
2018-10-02T10:40:23.370Z,9.00
2018-10-02T10:42:51.619Z,9.00
2018-10-02T10:45:19.911Z,9.00
2018-10-02T10:47:48.312Z,9.10
2018-10-02T10:50:16.541Z,9.10
2018-10-02T10:52:44.888Z,9.20
2018-10-02T10:55:21.155Z,9.20
2018-10-02T10:57:50.068Z,9.30
2018-10-02T11:00:18.341Z,9.30
2018-10-02T11:02:46.827Z,9.40
2018-10-02T11:05:15.224Z,9.40
2018-10-02T11:07:43.663Z,9.40
2018-10-02T11:10:11.931Z,9.50
2018-10-02T11:12:40.196Z,9.50
2018-10-02T11:15:08.791Z,9.50
2018-10-02T11:17:37.049Z,9.50
2018-10-02T11:20:05.835Z,9.50
2018-10-02T11:22:34.799Z,9.50
2018-10-02T11:25:03.489Z,9.60
2018-10-02T11:27:31.805Z,9.60
2018-10-02T11:30:00.090Z,9.70
2018-10-02T11:32:28.387Z,9.70
2018-10-02T11:34:56.677Z,9.70
2018-10-02T11:37:24.980Z,9.80
2018-10-02T11:39:53.279Z,9.80
2018-10-02T11:42:21.568Z,9.80
2018-10-02T11:44:49.927Z,9.80
2018-10-02T11:47:18.136Z,9.90
2018-10-02T11:49:46.508Z,9.90
2018-10-02T11:52:14.720Z,9.90
2018-10-02T11:54:42.968Z,9.90
2018-10-02T11:57:11.249Z,10.00
2018-10-02T11:59:39.512Z,10.00
2018-10-02T12:02:07.797Z,10.10
2018-10-02T12:04:36.064Z,10.10
2018-10-02T12:07:04.341Z,10.10
2018-10-02T12:09:32.614Z,10.10
2018-10-02T12:12:00.889Z,10.20
2018-10-02T12:14:29.379Z,10.20
2018-10-02T12:16:57.522Z,10.10
2018-10-02T12:19:25.893Z,10.20
2018-10-02T12:21:54.104Z,10.20
2018-10-02T12:24:22.394Z,10.30
2018-10-02T12:26:50.667Z,10.30
2018-10-02T12:29:19.008Z,10.40
2018-10-02T12:31:47.357Z,10.40
2018-10-02T12:34:15.779Z,10.50
2018-10-02T12:36:44.052Z,10.50
2018-10-02T12:39:12.403Z,10.60
2018-10-02T12:41:40.672Z,10.60
2018-10-02T12:44:08.944Z,10.60
2018-10-02T12:46:37.267Z,10.70
2018-10-02T12:49:05.596Z,10.80
2018-10-02T12:51:33.883Z,10.80
2018-10-02T12:54:02.153Z,10.90
2018-10-02T12:56:30.436Z,10.90
2018-10-02T12:58:58.792Z,11.00
2018-10-02T13:01:27.059Z,11.00
2018-10-02T13:03:55.380Z,11.00
2018-10-02T13:06:23.670Z,11.10
2018-10-02T13:08:51.940Z,11.10
2018-10-02T13:11:20.253Z,11.10
2018-10-02T13:13:48.567Z,11.20
2018-10-02T13:16:16.877Z,11.20
2018-10-02T13:18:45.176Z,11.20
2018-10-02T13:21:13.476Z,11.30
2018-10-02T13:23:41.797Z,11.30
2018-10-02T13:26:10.116Z,11.30
2018-10-02T13:28:38.407Z,11.30
2018-10-02T13:31:06.720Z,11.40
2018-10-02T13:33:35.015Z,11.50
2018-10-02T13:36:03.332Z,11.40
2018-10-02T13:38:31.615Z,11.50
2018-10-02T13:40:59.920Z,11.50
2018-10-02T13:43:28.180Z,11.50
2018-10-02T13:45:56.456Z,11.50
2018-10-02T13:48:24.731Z,11.50
2018-10-02T13:50:53.048Z,11.60
2018-10-02T13:53:21.315Z,11.60
2018-10-02T13:55:49.587Z,11.60
2018-10-02T13:58:17.859Z,11.70
2018-10-02T14:00:46.152Z,11.70
2018-10-02T14:03:14.441Z,11.80
2018-10-02T14:05:42.741Z,11.80
2018-10-02T14:08:11.092Z,11.80
2018-10-02T14:10:39.359Z,11.80
2018-10-02T14:13:07.672Z,11.90
2018-10-02T14:15:36.100Z,11.90
2018-10-02T14:18:04.400Z,11.80
2018-10-02T14:20:32.700Z,11.80
2018-10-02T14:23:01.005Z,11.80
2018-10-02T14:25:29.288Z,11.80
2018-10-02T14:27:57.577Z,11.80
2018-10-02T14:30:25.853Z,11.90
2018-10-02T14:32:54.103Z,11.90
2018-10-02T14:35:22.372Z,11.90
2018-10-02T14:37:50.668Z,11.90
2018-10-02T14:40:18.955Z,11.90
2018-10-02T14:42:47.212Z,12.00
2018-10-02T14:45:15.483Z,12.00
2018-10-02T14:47:43.747Z,12.10
2018-10-02T14:50:12.032Z,12.10
2018-10-02T14:52:40.328Z,12.20
2018-10-02T14:55:08.697Z,12.30
2018-10-02T14:57:36.964Z,12.40
2018-10-02T15:00:05.396Z,12.50
2018-10-02T15:02:33.672Z,12.60
2018-10-02T15:05:01.954Z,12.70
2018-10-02T15:07:30.233Z,12.80
2018-10-02T15:09:58.495Z,12.80
2018-10-02T15:12:26.759Z,12.80
2018-10-02T15:14:55.015Z,12.80
2018-10-02T15:17:23.304Z,12.90
2018-10-02T15:19:51.581Z,12.90
2018-10-02T15:22:19.992Z,12.90
2018-10-02T15:24:48.280Z,12.90
2018-10-02T15:27:16.571Z,12.90
2018-10-02T15:29:44.973Z,12.90
2018-10-02T15:32:13.342Z,12.90
2018-10-02T15:34:41.609Z,12.90
2018-10-02T15:37:09.980Z,12.90
2018-10-02T15:39:38.252Z,12.90
2018-10-02T15:42:06.519Z,12.80
2018-10-02T15:44:34.811Z,12.80
2018-10-02T15:47:03.141Z,12.90
2018-10-02T15:49:31.412Z,12.90
2018-10-02T15:52:06.665Z,12.90
2018-10-02T15:54:34.967Z,13.00
2018-10-02T15:57:03.256Z,13.00
2018-10-02T15:59:31.520Z,13.00
2018-10-02T16:01:59.811Z,13.00
2018-10-02T16:04:28.107Z,13.00
2018-10-02T16:06:56.372Z,12.90
2018-10-02T16:09:24.648Z,12.80
2018-10-02T16:11:53.002Z,12.80
2018-10-02T16:14:21.216Z,12.70
2018-10-02T16:16:49.499Z,12.60
2018-10-02T16:19:17.759Z,12.50
2018-10-02T16:21:46.071Z,12.40
2018-10-02T16:24:14.392Z,12.30
2018-10-02T16:26:42.708Z,12.30
2018-10-02T16:29:10.993Z,12.30
2018-10-02T16:31:39.264Z,12.30
2018-10-02T16:34:07.561Z,12.20
2018-10-02T16:36:35.856Z,12.20
2018-10-02T16:39:05.437Z,12.20
2018-10-02T16:41:33.732Z,12.20
2018-10-02T16:44:02.031Z,12.20
2018-10-02T16:46:30.403Z,12.10
2018-10-02T16:48:58.712Z,12.10
2018-10-02T16:51:27.027Z,12.10
2018-10-02T16:53:55.332Z,12.10
2018-10-02T16:56:23.636Z,12.00
2018-10-02T16:58:51.897Z,12.00
2018-10-02T17:01:20.189Z,12.00
2018-10-02T17:03:48.499Z,12.00
2018-10-02T17:06:16.773Z,12.00
2018-10-02T17:08:45.047Z,12.00
2018-10-02T17:11:13.323Z,11.90
2018-10-02T17:13:41.832Z,11.90
2018-10-02T17:16:10.098Z,12.00
2018-10-02T17:18:38.355Z,12.00
2018-10-02T17:21:06.731Z,12.00
2018-10-02T17:23:35.016Z,12.00
2018-10-02T17:26:03.392Z,12.00
2018-10-02T17:28:31.660Z,12.00
2018-10-02T17:30:59.930Z,12.00
2018-10-02T17:33:28.235Z,12.00
2018-10-02T17:35:56.528Z,12.00
2018-10-02T17:38:24.824Z,12.00
2018-10-02T17:40:53.953Z,12.00
2018-10-02T17:43:22.256Z,12.00
2018-10-02T17:45:50.542Z,12.00
2018-10-02T17:48:18.836Z,12.00
2018-10-02T17:50:47.124Z,12.00
2018-10-02T17:53:15.559Z,11.90
2018-10-02T17:55:43.845Z,11.90
2018-10-02T17:58:12.170Z,11.90
2018-10-02T18:00:40.405Z,11.90
2018-10-02T18:03:08.686Z,11.90
2018-10-02T18:05:37.297Z,11.90
2018-10-02T18:08:05.744Z,12.00
2018-10-02T18:10:34.233Z,12.00
2018-10-02T18:13:02.753Z,12.00
2018-10-02T18:15:31.102Z,12.00
2018-10-02T18:17:59.347Z,12.00
2018-10-02T18:20:27.620Z,12.00
2018-10-02T18:22:56.091Z,12.00
2018-10-02T18:25:24.398Z,12.00
2018-10-02T18:27:52.744Z,12.00
2018-10-02T18:30:21.055Z,12.10
2018-10-02T18:32:49.400Z,12.10
2018-10-02T18:35:17.709Z,12.10
2018-10-02T18:37:46.012Z,12.00
2018-10-02T18:40:14.313Z,12.10
2018-10-02T18:42:42.613Z,12.10
2018-10-02T18:45:10.931Z,12.00
2018-10-02T18:47:39.208Z,12.00
2018-10-02T18:50:07.655Z,12.00
2018-10-02T18:52:35.926Z,12.00
2018-10-02T18:55:04.385Z,12.00
2018-10-02T18:57:32.664Z,12.00
2018-10-02T19:00:00.959Z,12.00
2018-10-02T19:02:29.236Z,11.90
2018-10-02T19:04:57.525Z,12.00
2018-10-02T19:07:25.816Z,12.00
2018-10-02T19:09:54.127Z,11.90
2018-10-02T19:12:22.595Z,12.00
2018-10-02T19:14:50.887Z,12.00
2018-10-02T19:17:19.212Z,12.00
2018-10-02T19:19:52.903Z,12.00
2018-10-02T19:22:21.292Z,12.00
2018-10-02T19:24:49.606Z,12.00
2018-10-02T19:27:17.851Z,12.00
2018-10-02T19:29:46.141Z,11.90
2018-10-02T19:32:16.234Z,11.80
2018-10-02T19:34:44.577Z,11.80
2018-10-02T19:37:18.460Z,11.70
2018-10-02T19:39:46.840Z,11.70
2018-10-02T19:42:15.495Z,11.70
2018-10-02T19:44:43.790Z,11.70
2018-10-02T19:47:12.166Z,11.70
2018-10-02T19:49:40.450Z,11.70
2018-10-02T19:52:13.106Z,11.70
2018-10-02T19:54:41.596Z,11.70
2018-10-02T19:57:12.353Z,11.70
2018-10-02T19:59:40.694Z,11.70
2018-10-02T20:02:08.980Z,11.70
2018-10-02T20:04:37.575Z,11.70
2018-10-02T20:07:06.118Z,11.70
2018-10-02T20:09:34.431Z,11.70
2018-10-02T20:12:02.713Z,11.60
2018-10-02T20:14:30.997Z,11.50
2018-10-02T20:16:59.285Z,11.50
2018-10-02T20:19:27.759Z,11.50
2018-10-02T20:21:56.028Z,11.40
2018-10-02T20:24:24.395Z,11.40
2018-10-02T20:26:52.666Z,11.40
2018-10-02T20:29:20.965Z,11.40
2018-10-02T20:31:50.703Z,11.30
2018-10-02T20:34:19.024Z,11.40
2018-10-02T20:36:47.475Z,11.40
2018-10-02T20:39:15.753Z,11.40
2018-10-02T20:41:44.106Z,11.40
2018-10-02T20:44:12.856Z,11.30
2018-10-02T20:46:41.134Z,11.30
2018-10-02T20:49:09.623Z,11.30
2018-10-02T20:51:38.024Z,11.30
2018-10-02T20:54:06.468Z,11.30
2018-10-02T20:56:34.735Z,11.30
2018-10-02T20:59:03.060Z,11.30
2018-10-02T21:01:31.322Z,11.30
2018-10-02T21:03:59.615Z,11.30
2018-10-02T21:06:27.883Z,11.40
2018-10-02T21:08:56.159Z,11.40
2018-10-02T21:11:24.432Z,11.40
2018-10-02T21:13:52.875Z,11.40
2018-10-02T21:16:21.135Z,11.40
2018-10-02T21:18:49.475Z,11.40
2018-10-02T21:21:17.744Z,11.40
2018-10-02T21:23:46.015Z,11.50
2018-10-02T21:26:14.317Z,11.50
2018-10-02T21:28:42.658Z,11.40
2018-10-02T21:31:10.933Z,11.40
2018-10-02T21:33:39.285Z,11.30
2018-10-02T21:36:07.584Z,11.30
2018-10-02T21:38:35.880Z,11.20
2018-10-02T21:41:04.129Z,11.20
2018-10-02T21:43:32.479Z,11.20
2018-10-02T21:46:00.764Z,11.20
2018-10-02T21:48:29.100Z,11.10
2018-10-02T21:50:57.319Z,11.10
2018-10-02T21:53:25.591Z,11.10
2018-10-02T21:55:53.831Z,11.10
2018-10-02T21:58:22.100Z,11.10
2018-10-02T22:00:50.374Z,11.00
2018-10-02T22:03:18.648Z,11.00
2018-10-02T22:05:46.951Z,10.90
2018-10-02T22:08:15.208Z,10.90
2018-10-02T22:10:43.496Z,10.80
2018-10-02T22:13:11.784Z,10.80
2018-10-02T22:15:40.039Z,10.80
2018-10-02T22:18:08.296Z,10.80
2018-10-02T22:20:36.583Z,10.80
2018-10-02T22:23:04.847Z,10.70
2018-10-02T22:25:33.119Z,10.60
2018-10-02T22:28:01.503Z,10.60
2018-10-02T22:30:29.768Z,10.60
2018-10-02T22:32:58.084Z,10.60
2018-10-02T22:35:26.379Z,10.60
2018-10-02T22:37:54.698Z,10.60
2018-10-02T22:40:22.996Z,10.60
2018-10-02T22:42:51.299Z,10.60
2018-10-02T22:45:19.572Z,10.60
2018-10-02T22:47:47.839Z,10.70
2018-10-02T22:50:16.132Z,10.70
2018-10-02T22:52:44.400Z,10.70
2018-10-02T22:55:12.687Z,10.70
2018-10-02T22:57:40.972Z,10.70
2018-10-02T23:00:09.287Z,10.70
2018-10-02T23:02:37.608Z,10.70
2018-10-02T23:05:06.065Z,10.60
2018-10-02T23:07:34.335Z,10.60
2018-10-02T23:10:02.651Z,10.70
2018-10-02T23:12:30.948Z,10.70
2018-10-02T23:14:59.227Z,10.70
2018-10-02T23:17:27.527Z,10.70
2018-10-02T23:19:55.820Z,10.70
2018-10-02T23:22:24.151Z,10.70
2018-10-02T23:24:52.403Z,10.70
2018-10-02T23:27:20.704Z,10.70
2018-10-02T23:29:48.989Z,10.80
2018-10-02T23:32:17.543Z,10.80
2018-10-02T23:34:45.895Z,10.80
2018-10-02T23:37:14.175Z,10.80
2018-10-02T23:39:42.476Z,10.70
2018-10-02T23:42:10.855Z,10.70
2018-10-02T23:44:39.133Z,10.70
2018-10-02T23:47:07.479Z,10.60
2018-10-02T23:49:35.743Z,10.60
2018-10-02T23:52:04.070Z,10.60
2018-10-02T23:54:32.345Z,10.60
2018-10-02T23:57:00.621Z,10.50
2018-10-02T23:59:28.926Z,10.50
